Time;durP1;ratioP1;P1;durP2;ratioP2;P2;SDS_P1;SDS_P2;PMS_P1;PMS_P2;Temp;Humidity;BMP_temperature;BMP_pressure;BME280_temperature;BME280_humidity;BME280_pressure;Samples;Min_cycle;Max_cycle;Signal;HPM_P1;HPM_P2
2022/01/18 00:01:56;;;;;;;13.05;4.07;;;5.90;88.50;;;;;;6071261;23;20019;-70
2022/01/18 00:04:23;;;;;;;11.43;4.75;;;5.90;88.40;;;;;;6051531;23;20545;-71
2022/01/18 00:06:52;;;;;;;10.93;4.93;;;5.90;88.40;;;;;;6049083;23;20018;-71
2022/01/18 00:09:22;;;;;;;9.18;3.30;;;5.90;88.40;;;;;;6051469;23;20607;-70
2022/01/18 00:11:58;;;;;;;9.27;3.78;;;5.90;88.40;;;;;;6052060;23;20025;-72
2022/01/18 00:14:27;;;;;;;9.35;4.13;;;5.90;88.30;;;;;;6072290;23;20027;-70
2022/01/18 00:17:05;;;;;;;10.35;3.47;;;5.90;88.30;;;;;;6052842;23;20018;-71
2022/01/18 00:19:39;;;;;;;8.63;3.58;;;5.90;88.30;;;;;;6017412;23;20023;-71
2022/01/18 00:22:22;;;;;;;5.15;2.63;;;5.90;88.20;;;;;;3385228;23;10003178;-71
2022/01/18 00:24:49;;;;;;;7.88;3.63;;;5.90;88.20;;;;;;4803675;23;10000997;-72
2022/01/18 00:27:18;;;;;;;6.88;3.03;;;5.90;88.00;;;;;;6054172;23;20031;-70
2022/01/18 00:29:55;;;;;;;7.78;3.85;;;5.90;88.00;;;;;;6055717;23;20078;-71
2022/01/18 00:32:32;;;;;;;8.60;3.90;;;5.90;87.90;;;;;;6055344;23;20054;-70
2022/01/18 00:34:59;;;;;;;13.02;5.45;;;5.90;87.90;;;;;;6055875;23;20049;-71
2022/01/18 00:37:34;;;;;;;10.50;4.47;;;5.90;87.80;;;;;;6055583;23;20026;-71
2022/01/18 00:40:01;;;;;;;8.38;3.22;;;5.90;87.80;;;;;;6056285;23;20041;-70
2022/01/18 00:42:33;;;;;;;7.18;3.42;;;5.90;87.80;;;;;;6056366;23;20030;-70
2022/01/18 00:45:00;;;;;;;8.32;3.40;;;5.90;87.90;;;;;;6056784;23;20029;-70
2022/01/18 00:47:28;;;;;;;10.95;3.75;;;5.90;87.90;;;;;;6055188;23;20026;-71
2022/01/18 00:50:00;;;;;;;10.38;3.80;;;5.90;87.90;;;;;;6055639;23;20029;-71
2022/01/18 00:52:33;;;;;;;9.98;4.00;;;5.90;87.90;;;;;;6055696;23;20473;-71
2022/01/18 00:55:01;;;;;;;8.63;3.47;;;5.90;87.90;;;;;;6054734;23;20062;-71
2022/01/18 00:57:30;;;;;;;9.75;4.07;;;5.80;87.90;;;;;;6054487;23;20019;-69
2022/01/18 00:59:59;;;;;;;9.32;4.13;;;5.90;87.90;;;;;;6055921;23;20044;-70
2022/01/18 01:02:25;;;;;;;11.23;4.30;;;5.80;87.90;;;;;;6052831;23;20389;-71
2022/01/18 01:04:53;;;;;;;9.10;4.07;;;5.90;87.90;;;;;;6054656;23;20443;-69
2022/01/18 01:07:22;;;;;;;10.90;3.50;;;5.90;87.90;;;;;;6055473;23;20027;-69
2022/01/18 01:09:50;;;;;;;8.98;3.97;;;5.80;87.90;;;;;;6055572;23;20019;-71
2022/01/18 01:12:20;;;;;;;8.50;3.85;;;5.80;88.00;;;;;;6054631;23;20119;-71
2022/01/18 01:14:49;;;;;;;12.90;3.70;;;5.80;88.00;;;;;;6055125;23;20130;-71
2022/01/18 01:17:31;;;;;;;8.80;4.15;;;5.80;88.00;;;;;;6054311;23;20030;-71
2022/01/18 01:42:27;;;;;;;7.38;3.80;;;5.90;88.00;;;;;;6075600;23;20402;-70
2022/01/18 01:44:56;;;;;;;8.02;3.70;;;5.80;88.00;;;;;;6053113;23;20577;-71
2022/01/18 01:47:33;;;;;;;9.35;3.97;;;5.80;88.10;;;;;;6052754;23;20110;-71
2022/01/18 01:50:06;;;;;;;6.63;3.30;;;5.80;88.10;;;;;;6053909;23;20031;-70
2022/01/18 01:52:33;;;;;;;8.20;3.10;;;5.80;88.10;;;;;;6053965;23;20094;-70
2022/01/18 01:55:00;;;;;;;12.15;4.22;;;5.80;88.10;;;;;;6053834;23;20101;-69
2022/01/18 01:57:28;;;;;;;7.07;3.40;;;5.80;88.10;;;;;;6054709;23;20053;-69
2022/01/18 01:59:57;;;;;;;11.48;3.53;;;5.80;88.10;;;;;;6055803;23;20042;-71
2022/01/18 02:02:25;;;;;;;8.80;4.28;;;5.80;88.10;;;;;;6052091;23;20023;-70
2022/01/18 02:04:52;;;;;;;13.00;4.15;;;5.80;88.10;;;;;;6055289;23;20069;-70
2022/01/18 02:07:20;;;;;;;11.10;4.50;;;5.80;88.10;;;;;;6055346;23;20022;-70
2022/01/18 02:09:47;;;;;;;6.20;3.17;;;5.80;88.20;;;;;;6055405;23;20074;-70
2022/01/18 02:12:18;;;;;;;7.13;3.30;;;5.80;88.10;;;;;;6054099;23;20027;-70
2022/01/18 02:14:50;;;;;;;9.25;3.28;;;5.80;88.10;;;;;;6053366;23;20050;-70
2022/01/18 02:22:57;;;;;;;7.65;3.40;;;5.80;88.20;;;;;;2503372;23;10001935;-70
2022/01/18 02:25:25;;;;;;;7.07;2.47;;;5.80;88.10;;;;;;6054794;23;20026;-72
2022/01/18 02:27:52;;;;;;;8.80;3.63;;;5.80;88.20;;;;;;6055253;23;20046;-71
2022/01/18 02:30:18;;;;;;;6.30;3.10;;;5.80;88.20;;;;;;6055307;23;20130;-71
2022/01/18 02:32:45;;;;;;;6.10;2.75;;;5.80;88.10;;;;;;6055658;23;20129;-71
2022/01/18 02:35:14;;;;;;;8.65;3.53;;;5.80;88.10;;;;;;6055498;23;20022;-71
2022/01/18 02:37:41;;;;;;;7.60;2.92;;;5.80;88.10;;;;;;6053968;23;20458;-70
2022/01/18 02:40:09;;;;;;;7.07;4.05;;;5.80;88.10;;;;;;6052540;23;20023;-71
2022/01/18 02:42:44;;;;;;;5.43;2.67;;;5.80;88.20;;;;;;6054516;23;20493;-71
2022/01/18 02:45:11;;;;;;;9.20;2.70;;;5.80;88.20;;;;;;6056829;23;20026;-71
2022/01/18 02:47:38;;;;;;;4.93;2.20;;;5.80;88.20;;;;;;6055566;23;20019;-70
2022/01/18 02:50:05;;;;;;;6.63;2.80;;;5.80;88.30;;;;;;6055481;23;20031;-71
2022/01/18 02:52:34;;;;;;;5.82;2.50;;;5.80;88.20;;;;;;6055529;23;20025;-72
2022/01/18 02:55:01;;;;;;;7.60;2.20;;;5.80;88.20;;;;;;6056023;23;20023;-72
2022/01/18 02:57:36;;;;;;;5.78;2.30;;;5.80;88.20;;;;;;6054304;23;20518;-70
2022/01/18 03:00:15;;;;;;;5.93;2.25;;;5.80;88.20;;;;;;6053286;23;20110;-70
2022/01/18 03:05:31;;;;;;;7.05;2.05;;;5.80;88.20;;;;;;6031055;23;20369;-71
2022/01/18 03:08:00;;;;;;;7.10;1.83;;;5.80;88.20;;;;;;6054105;23;20027;-71
2022/01/18 03:10:31;;;;;;;4.78;1.60;;;5.80;88.20;;;;;;6053663;23;20019;-72
2022/01/18 03:12:58;;;;;;;5.63;2.15;;;5.80;88.20;;;;;;6052323;23;20220;-72
2022/01/18 03:15:25;;;;;;;8.32;1.80;;;5.80;88.20;;;;;;6053167;23;20129;-71
2022/01/18 03:17:52;;;;;;;8.93;2.50;;;5.80;88.20;;;;;;6052661;23;20014;-71
2022/01/18 03:20:20;;;;;;;3.70;1.80;;;5.70;88.20;;;;;;6051824;23;20236;-71
2022/01/18 03:22:49;;;;;;;8.35;2.13;;;5.80;88.20;;;;;;6053068;23;20469;-70
2022/01/18 03:25:27;;;;;;;6.40;3.17;;;5.80;88.20;;;;;;6052733;23;20022;-70
2022/01/18 03:28:07;;;;;;;6.70;2.30;;;5.70;88.20;;;;;;6053092;23;20018;-71
2022/01/18 03:30:43;;;;;;;7.03;2.03;;;5.70;88.20;;;;;;6051836;23;20023;-70
2022/01/18 03:33:11;;;;;;;4.88;2.00;;;5.70;88.20;;;;;;6052469;23;20133;-71
2022/01/18 03:35:38;;;;;;;5.75;2.70;;;5.70;88.20;;;;;;6052997;23;20023;-71
2022/01/18 03:38:06;;;;;;;5.55;2.17;;;5.70;88.10;;;;;;6054253;23;20369;-71
2022/01/18 03:40:35;;;;;;;6.75;2.55;;;5.80;88.10;;;;;;6053442;23;20591;-71
2022/01/18 03:43:02;;;;;;;6.57;2.90;;;5.70;88.20;;;;;;6053250;23;20263;-72
2022/01/18 03:45:32;;;;;;;7.72;3.53;;;5.80;88.10;;;;;;6053269;23;20023;-71
2022/01/18 03:48:03;;;;;;;5.35;2.55;;;5.70;88.10;;;;;;6053120;23;20072;-71
2022/01/18 03:50:31;;;;;;;7.38;3.63;;;5.70;88.10;;;;;;6052668;23;20130;-71
2022/01/18 03:52:57;;;;;;;8.35;3.10;;;5.80;88.00;;;;;;6052053;23;20352;-71
2022/01/18 03:55:25;;;;;;;7.72;2.78;;;5.70;88.00;;;;;;6051525;23;20022;-71
2022/01/18 03:57:53;;;;;;;5.38;2.75;;;5.80;88.00;;;;;;6052450;23;20592;-72
2022/01/18 04:00:23;;;;;;;6.18;2.50;;;5.70;88.10;;;;;;6048902;23;20023;-71
2022/01/18 04:02:51;;;;;;;6.60;2.30;;;5.70;88.10;;;;;;6051695;23;20019;-70
2022/01/18 04:05:18;;;;;;;5.18;2.30;;;5.70;88.10;;;;;;6049501;23;20029;-70
2022/01/18 04:07:46;;;;;;;9.05;2.88;;;5.70;88.10;;;;;;6051063;23;20118;-70
2022/01/18 04:10:13;;;;;;;6.75;2.25;;;5.70;88.10;;;;;;6051473;23;20089;-72
2022/01/18 04:12:41;;;;;;;5.88;2.47;;;5.70;88.10;;;;;;6054412;23;20666;-71
2022/01/18 04:15:12;;;;;;;7.72;2.78;;;5.80;88.10;;;;;;6054272;23;20023;-69
2022/01/18 04:18:07;;;;;;;5.75;2.65;;;5.70;88.20;;;;;;6053305;23;20023;-72
2022/01/18 04:29:03;;;;;;;7.85;2.70;;;5.70;88.20;;;;;;6055236;23;20489;-71
2022/01/18 04:31:39;;;;;;;8.45;2.30;;;5.70;88.20;;;;;;6055110;23;20145;-72
2022/01/18 04:34:06;;;;;;;7.32;2.67;;;5.70;88.30;;;;;;6055018;23;20453;-70
2022/01/18 04:36:33;;;;;;;8.63;2.80;;;5.70;88.20;;;;;;6054270;23;20110;-69
2022/01/18 04:39:00;;;;;;;12.40;3.40;;;5.70;88.20;;;;;;6052811;23;20046;-71
2022/01/18 04:41:30;;;;;;;6.43;2.85;;;5.80;88.10;;;;;;6051491;23;20027;-70
2022/01/18 04:48:23;;;;;;;7.68;3.10;;;5.70;88.20;;;;;;6052725;23;20386;-71
2022/01/18 04:49:41;;;;;;;6.63;2.20;;;5.80;88.10;;;;;;6052560;23;20019;-69
2022/01/18 04:52:10;;;;;;;5.07;1.80;;;5.80;88.10;;;;;;6051386;23;20521;-70
2022/01/18 04:54:41;;;;;;;5.05;1.80;;;5.80;88.10;;;;;;6052272;23;20023;-71
2022/01/18 04:59:54;;;;;;;3.22;1.02;;;5.70;88.00;;;;;;6053666;23;20518;-71
2022/01/18 05:02:22;;;;;;;7.60;1.40;;;5.70;88.10;;;;;;6051455;23;20027;-71
2022/01/18 05:04:50;;;;;;;4.85;1.20;;;5.70;88.10;;;;;;6054242;23;20022;-71
2022/01/18 05:07:18;;;;;;;6.03;1.13;;;5.70;88.10;;;;;;6053711;23;20035;-71
2022/01/18 05:09:49;;;;;;;3.80;1.55;;;5.70;88.10;;;;;;6054501;23;20417;-71
2022/01/18 05:12:25;;;;;;;2.47;1.05;;;5.70;88.10;;;;;;6053545;23;20134;-71
2022/01/18 05:14:53;;;;;;;2.88;1.30;;;5.70;88.10;;;;;;6055968;23;20152;-71
2022/01/18 05:17:39;;;;;;;6.90;1.15;;;5.70;88.10;;;;;;6056948;23;20030;-71
2022/01/18 05:20:37;;;;;;;3.08;1.30;;;5.70;88.10;;;;;;6055863;23;20038;-71
2022/01/18 05:23:02;;;;;;;7.80;2.58;;;5.70;88.10;;;;;;6057299;23;20037;-71
2022/01/18 05:25:30;;;;;;;3.85;1.55;;;5.70;88.00;;;;;;6056812;23;20441;-71
2022/01/18 05:27:57;;;;;;;6.00;1.83;;;5.70;88.00;;;;;;6057230;23;20102;-72
2022/01/18 05:30:25;;;;;;;4.18;1.92;;;5.70;88.00;;;;;;6057195;23;20030;-72
2022/01/18 05:32:53;;;;;;;4.80;1.75;;;5.70;88.00;;;;;;6057757;23;20046;-71
2022/01/18 05:35:21;;;;;;;5.13;2.10;;;5.70;88.00;;;;;;6057158;23;20555;-70
2022/01/18 05:37:48;;;;;;;5.07;2.05;;;5.70;88.00;;;;;;6058087;23;20098;-71
2022/01/18 05:40:16;;;;;;;5.55;2.10;;;5.70;88.00;;;;;;6054639;23;20327;-69
2022/01/18 05:42:43;;;;;;;5.55;2.13;;;5.70;88.00;;;;;;6057791;23;20121;-70
2022/01/18 05:45:11;;;;;;;5.07;1.73;;;5.70;88.00;;;;;;6057074;23;20053;-70
2022/01/18 05:47:39;;;;;;;3.42;1.70;;;5.70;88.10;;;;;;6057194;23;20027;-71
2022/01/18 05:50:10;;;;;;;5.72;2.03;;;5.70;88.00;;;;;;6054539;23;20734;-71
2022/01/18 05:52:37;;;;;;;5.80;1.83;;;5.70;88.00;;;;;;6056801;23;20050;-71
2022/01/18 05:55:06;;;;;;;4.78;2.42;;;5.70;88.00;;;;;;6057355;23;20106;-72
2022/01/18 05:57:33;;;;;;;3.88;1.90;;;5.70;88.00;;;;;;6056762;23;20026;-71
2022/01/18 06:00:04;;;;;;;5.03;2.10;;;5.70;88.00;;;;;;6057136;23;20446;-72
2022/01/18 06:02:47;;;;;;;4.20;1.88;;;5.70;88.00;;;;;;6056210;23;20075;-71
2022/01/18 06:08:00;;;;;;;7.13;1.98;;;5.70;88.10;;;;;;6057425;23;20049;-71
2022/01/18 06:10:31;;;;;;;5.40;2.28;;;5.70;88.00;;;;;;6056892;23;20038;-71
2022/01/18 06:13:00;;;;;;;2.95;1.20;;;5.70;88.00;;;;;;6056615;23;20117;-71
2022/01/18 06:15:31;;;;;;;6.30;2.08;;;5.70;88.10;;;;;;6056460;23;20049;-70
2022/01/18 06:17:58;;;;;;;7.13;2.47;;;5.70;88.00;;;;;;6054965;23;20093;-72
2022/01/18 06:20:43;;;;;;;2.73;0.99;;;5.70;88.00;;;;;;4199857;23;10021356;-70
2022/01/18 06:23:10;;;;;;;5.95;1.77;;;5.70;88.10;;;;;;3130128;23;10001988;-71
2022/01/18 06:25:38;;;;;;;8.23;2.28;;;5.70;88.10;;;;;;6053912;23;20053;-70
2022/01/18 06:28:06;;;;;;;6.35;1.83;;;5.70;88.10;;;;;;6054968;23;20240;-70
2022/01/18 06:30:33;;;;;;;4.00;1.88;;;5.70;88.10;;;;;;6076921;23;20094;-71
2022/01/18 06:33:00;;;;;;;4.70;1.88;;;5.70;88.10;;;;;;6055196;23;20481;-71
2022/01/18 06:35:31;;;;;;;5.22;1.55;;;5.70;88.10;;;;;;6055102;23;20057;-70
2022/01/18 06:38:01;;;;;;;4.60;1.92;;;5.70;88.10;;;;;;6054831;23;20026;-69
2022/01/18 06:40:30;;;;;;;3.55;1.35;;;5.70;88.10;;;;;;6054717;23;20105;-70
2022/01/18 06:42:57;;;;;;;4.50;1.45;;;5.70;88.00;;;;;;6055215;23;20027;-69
2022/01/18 06:45:24;;;;;;;3.45;1.20;;;5.70;88.00;;;;;;6055473;23;20311;-71
2022/01/18 06:47:51;;;;;;;6.63;1.27;;;5.60;88.00;;;;;;6055709;23;20338;-72
2022/01/18 06:50:18;;;;;;;4.63;1.00;;;5.60;88.00;;;;;;6053061;23;20506;-70
2022/01/18 06:52:45;;;;;;;2.78;0.93;;;5.70;88.00;;;;;;6054496;23;20021;-72
2022/01/18 06:55:13;;;;;;;3.17;1.10;;;5.70;88.00;;;;;;6055558;23;20405;-70
2022/01/18 06:57:40;;;;;;;1.55;0.60;;;5.60;87.90;;;;;;6056134;23;20027;-71
2022/01/18 07:00:10;;;;;;;3.17;0.80;;;5.70;87.90;;;;;;6054368;23;20031;-72
2022/01/18 07:02:37;;;;;;;2.63;0.93;;;5.60;87.90;;;;;;6056333;23;20518;-71
2022/01/18 07:05:04;;;;;;;3.40;1.00;;;5.70;87.90;;;;;;6057071;23;20023;-70
2022/01/18 07:07:33;;;;;;;2.08;0.60;;;5.60;87.80;;;;;;6056569;23;20026;-69
2022/01/18 07:10:00;;;;;;;3.67;0.80;;;5.70;87.80;;;;;;6056813;23;20129;-71
2022/01/18 07:12:33;;;;;;;3.15;0.70;;;5.70;87.80;;;;;;6055556;23;20022;-71
2022/01/18 07:15:00;;;;;;;1.73;0.77;;;5.70;87.70;;;;;;6056559;23;20390;-71
2022/01/18 07:17:33;;;;;;;2.20;0.70;;;5.60;87.80;;;;;;6056507;23;20034;-71
2022/01/18 07:20:00;;;;;;;1.83;0.82;;;5.60;87.80;;;;;;6056809;23;20125;-71
2022/01/18 07:22:28;;;;;;;5.05;0.80;;;5.60;87.80;;;;;;6056356;23;20489;-71
2022/01/18 07:24:57;;;;;;;3.08;0.80;;;5.60;87.90;;;;;;6056735;23;20023;-72
2022/01/18 07:27:25;;;;;;;3.47;0.93;;;5.70;87.90;;;;;;6055162;23;20335;-70
2022/01/18 07:29:53;;;;;;;1.92;0.82;;;5.70;87.80;;;;;;6078448;23;20025;-72
2022/01/18 07:32:20;;;;;;;1.52;0.68;;;5.70;87.90;;;;;;6055876;23;20101;-70
2022/01/18 07:34:52;;;;;;;4.13;0.70;;;5.60;87.90;;;;;;6055993;23;20365;-71
2022/01/18 07:37:20;;;;;;;2.00;0.63;;;5.70;87.90;;;;;;6055842;23;20030;-71
2022/01/18 07:39:48;;;;;;;2.33;1.10;;;5.60;87.90;;;;;;6056789;23;20082;-70
2022/01/18 07:42:16;;;;;;;2.80;1.00;;;5.60;87.90;;;;;;6055902;23;20454;-70
2022/01/18 07:44:43;;;;;;;2.80;0.63;;;5.60;87.90;;;;;;6056360;23;20030;-71
2022/01/18 07:47:11;;;;;;;4.07;0.90;;;5.70;87.90;;;;;;6056672;23;20095;-71
2022/01/18 07:49:38;;;;;;;1.20;0.60;;;5.70;87.90;;;;;;6056179;23;20025;-71
2022/01/18 07:52:05;;;;;;;3.50;1.13;;;5.70;87.80;;;;;;6055285;23;20406;-72
2022/01/18 07:54:32;;;;;;;2.90;0.85;;;5.70;87.90;;;;;;6055930;23;20032;-70
2022/01/18 07:56:59;;;;;;;3.17;0.65;;;5.70;87.90;;;;;;6054268;23;20101;-72
2022/01/18 07:59:27;;;;;;;2.08;1.23;;;5.60;87.90;;;;;;6053810;23;20023;-72
2022/01/18 08:01:54;;;;;;;3.20;0.80;;;5.70;87.90;;;;;;6051497;23;20496;-71
2022/01/18 08:04:23;;;;;;;3.78;1.08;;;5.70;87.90;;;;;;6053435;23;20030;-71
2022/01/18 08:06:50;;;;;;;4.60;1.15;;;5.70;87.90;;;;;;6054154;23;20090;-69
2022/01/18 08:09:19;;;;;;;2.53;1.05;;;5.70;87.90;;;;;;6053991;23;20350;-71
2022/01/18 08:11:46;;;;;;;2.33;1.10;;;5.70;87.90;;;;;;6054542;23;20042;-73
2022/01/18 08:14:14;;;;;;;3.35;1.35;;;5.70;87.80;;;;;;6054333;23;20033;-70
2022/01/18 08:16:48;;;;;;;4.25;1.10;;;5.70;87.80;;;;;;6053716;23;20019;-71
2022/01/18 08:19:17;;;;;;;4.15;1.70;;;5.70;87.80;;;;;;6028972;23;20649;-70
2022/01/18 08:21:49;;;;;;;3.45;1.00;;;5.70;87.90;;;;;;5652265;23;10000709;-71
2022/01/18 08:24:16;;;;;;;3.65;1.25;;;5.70;87.90;;;;;;831505;23;10002052;-69
2022/01/18 08:26:44;;;;;;;3.13;1.23;;;5.80;87.90;;;;;;6075837;23;20554;-71
2022/01/18 08:29:12;;;;;;;4.60;1.48;;;5.80;87.80;;;;;;6054106;23;20144;-71
2022/01/18 08:31:39;;;;;;;4.60;1.35;;;5.80;87.70;;;;;;6051891;23;20030;-69
2022/01/18 08:34:06;;;;;;;4.65;1.50;;;5.80;87.50;;;;;;6054744;23;20032;-71
2022/01/18 08:36:33;;;;;;;9.00;3.15;;;5.80;87.50;;;;;;6055628;23;20106;-70
2022/01/18 08:39:01;;;;;;;23.08;8.20;;;5.80;87.50;;;;;;6056604;23;20046;-71
2022/01/18 08:41:29;;;;;;;20.50;7.95;;;5.90;87.40;;;;;;6055786;23;20101;-71
2022/01/18 08:43:56;;;;;;;12.23;5.82;;;5.90;87.40;;;;;;6056395;23;20480;-69
2022/01/18 08:46:24;;;;;;;11.02;5.30;;;5.90;87.40;;;;;;6055251;23;20082;-70
2022/01/18 08:48:51;;;;;;;9.65;4.22;;;5.90;87.40;;;;;;6058002;23;20017;-70
2022/01/18 08:51:18;;;;;;;10.55;3.05;;;5.90;87.40;;;;;;6057439;23;20575;-72
2022/01/18 08:53:48;;;;;;;6.22;3.03;;;5.90;87.40;;;;;;6055475;23;20030;-71
2022/01/18 08:56:17;;;;;;;6.88;2.95;;;6.00;87.40;;;;;;6057784;23;20122;-71
2022/01/18 08:58:44;;;;;;;6.07;3.00;;;6.00;87.50;;;;;;6058113;23;20046;-71
2022/01/18 09:01:11;;;;;;;6.50;2.70;;;6.00;87.50;;;;;;6057283;23;20023;-71
2022/01/18 09:03:38;;;;;;;5.97;2.58;;;6.00;87.60;;;;;;6057619;23;20029;-72
2022/01/18 09:06:06;;;;;;;5.85;2.58;;;6.00;87.50;;;;;;6057661;23;20053;-72
2022/01/18 09:08:36;;;;;;;8.70;2.88;;;6.10;87.50;;;;;;6057706;23;20053;-70
2022/01/18 09:11:03;;;;;;;5.57;2.60;;;6.10;87.50;;;;;;6057603;23;20041;-72
2022/01/18 09:13:34;;;;;;;4.40;2.22;;;6.10;87.60;;;;;;6057034;23;20204;-70
2022/01/18 09:16:00;;;;;;;;;;;6.20;87.50;;;;;;6058300;23;20536;-72
2022/01/18 09:18:28;;;;;;;4.20;1.95;;;6.20;87.40;;;;;;6057042;23;19921;-72
2022/01/18 09:20:55;;;;;;;8.48;3.03;;;6.20;87.40;;;;;;6058167;23;20126;-72
2022/01/18 09:23:22;;;;;;;8.35;2.63;;;6.30;87.30;;;;;;6056315;23;20034;-70
2022/01/18 09:25:49;;;;;;;7.40;2.50;;;6.20;87.10;;;;;;6057192;23;20027;-69
2022/01/18 09:28:16;;;;;;;5.00;1.98;;;6.30;87.20;;;;;;6057316;23;20022;-71
2022/01/18 09:30:44;;;;;;;6.75;2.10;;;6.30;87.20;;;;;;6057526;23;20299;-69
2022/01/18 09:33:11;;;;;;;6.57;2.05;;;6.30;87.00;;;;;;6057370;23;20106;-70
2022/01/18 09:35:40;;;;;;;6.90;2.15;;;6.40;87.00;;;;;;6056166;23;20022;-71
2022/01/18 09:38:08;;;;;;;5.25;1.67;;;6.40;87.00;;;;;;6056107;23;20023;-71
2022/01/18 09:40:38;;;;;;;4.07;1.63;;;6.40;87.00;;;;;;6055622;23;20445;-72
2022/01/18 09:43:09;;;;;;;3.20;1.45;;;6.40;86.90;;;;;;6055414;23;20059;-72
2022/01/18 09:45:37;;;;;;;3.67;1.92;;;6.40;86.90;;;;;;6055410;23;20037;-71
2022/01/18 09:48:06;;;;;;;4.57;1.70;;;6.40;86.70;;;;;;6055677;23;20043;-71
2022/01/18 09:50:35;;;;;;;3.72;1.20;;;6.40;86.60;;;;;;6055465;23;20118;-71
2022/01/18 09:53:03;;;;;;;4.93;1.45;;;6.50;86.60;;;;;;6054267;23;20099;-71
2022/01/18 09:55:32;;;;;;;2.83;1.15;;;6.50;86.70;;;;;;6054805;23;20098;-70
2022/01/18 09:58:01;;;;;;;6.20;1.77;;;6.50;86.70;;;;;;6055935;23;20114;-70
2022/01/18 10:00:30;;;;;;;5.05;1.40;;;6.50;86.70;;;;;;6073536;23;20331;-72
2022/01/18 10:02:58;;;;;;;4.32;1.58;;;6.50;86.70;;;;;;6055229;23;20042;-72
2022/01/18 10:05:29;;;;;;;5.70;1.85;;;6.50;86.70;;;;;;6055115;23;20030;-70
2022/01/18 10:08:01;;;;;;;8.68;2.97;;;6.50;86.80;;;;;;6055177;23;20026;-72
2022/01/18 10:10:45;;;;;;;5.60;1.65;;;6.60;86.70;;;;;;6076990;23;20090;-72
2022/01/18 10:13:19;;;;;;;8.77;1.65;;;6.50;86.50;;;;;;6055509;23;20141;-72
2022/01/18 10:16:04;;;;;;;3.95;1.00;;;6.60;86.50;;;;;;6056286;23;20026;-72
2022/01/18 10:18:45;;;;;;;2.40;1.02;;;6.60;86.40;;;;;;6010298;23;20034;-73
2022/01/18 10:21:34;;;;;;;2.20;0.64;;;6.60;86.30;;;;;;2678708;23;10150032;-70
2022/01/18 10:24:15;;;;;;;3.53;0.93;;;6.60;86.30;;;;;;5220478;23;10000730;-71
2022/01/18 10:26:43;;;;;;;3.58;0.98;;;6.70;86.30;;;;;;6055863;23;20087;-70
2022/01/18 10:29:12;;;;;;;4.07;1.20;;;6.70;86.10;;;;;;6054938;23;20413;-70
2022/01/18 10:31:44;;;;;;;4.80;1.10;;;6.70;86.10;;;;;;6056810;23;20134;-72
2022/01/18 10:34:22;;;;;;;3.65;1.38;;;6.80;86.00;;;;;;6056750;23;20027;-72
2022/01/18 10:36:58;;;;;;;6.03;1.30;;;6.80;85.90;;;;;;6056929;23;20029;-70
2022/01/18 10:39:27;;;;;;;2.67;0.82;;;6.80;85.80;;;;;;6054281;23;20138;-70
2022/01/18 10:41:54;;;;;;;3.08;1.52;;;6.80;85.80;;;;;;6057119;23;20346;-72
2022/01/18 10:44:22;;;;;;;7.90;2.80;;;6.90;85.80;;;;;;6056506;23;20101;-71
2022/01/18 10:46:52;;;;;;;7.15;3.15;;;6.90;85.70;;;;;;6056816;23;20026;-72
2022/01/18 10:49:28;;;;;;;4.88;2.72;;;6.90;85.70;;;;;;6056078;23;20035;-70
2022/01/18 10:52:02;;;;;;;4.30;1.73;;;6.90;85.70;;;;;;6056213;23;20503;-73
2022/01/18 10:54:38;;;;;;;5.05;1.30;;;7.00;85.70;;;;;;6056396;23;20030;-71
2022/01/18 10:57:07;;;;;;;4.07;1.02;;;7.00;85.60;;;;;;6057658;23;20023;-71
2022/01/18 10:59:37;;;;;;;3.60;1.50;;;7.00;85.60;;;;;;6057566;23;20023;-69
2022/01/18 11:02:17;;;;;;;3.47;1.20;;;7.10;85.60;;;;;;6055511;23;20029;-71
2022/01/18 11:04:46;;;;;;;3.38;0.88;;;7.10;85.50;;;;;;6054556;23;20085;-72
2022/01/18 11:07:16;;;;;;;3.10;1.15;;;7.10;85.40;;;;;;6056415;23;20023;-70
2022/01/18 11:09:43;;;;;;;4.95;1.08;;;7.10;85.30;;;;;;6056095;23;20035;-71
2022/01/18 11:12:12;;;;;;;5.05;1.50;;;7.10;85.20;;;;;;6056680;23;20053;-72
2022/01/18 11:14:43;;;;;;;1.77;0.70;;;7.20;85.20;;;;;;6055882;23;20026;-72
2022/01/18 11:17:20;;;;;;;1.83;0.90;;;7.20;84.90;;;;;;6054901;23;20031;-71
2022/01/18 11:19:49;;;;;;;3.47;1.30;;;7.10;84.80;;;;;;6054516;23;20078;-70
2022/01/18 11:22:18;;;;;;;3.67;1.10;;;7.20;85.10;;;;;;6053853;23;20105;-72
2022/01/18 11:24:47;;;;;;;5.03;1.52;;;7.20;84.70;;;;;;6054571;23;20130;-71
2022/01/18 11:27:15;;;;;;;3.30;1.00;;;7.20;84.80;;;;;;6053730;23;20022;-71
2022/01/18 11:29:44;;;;;;;1.95;1.00;;;7.20;84.90;;;;;;6054931;23;20043;-71
2022/01/18 11:32:11;;;;;;;3.63;0.82;;;7.30;84.90;;;;;;6054316;23;20379;-71
2022/01/18 11:34:55;;;;;;;2.58;0.75;;;7.30;84.60;;;;;;6054295;23;20034;-70
2022/01/18 11:37:34;;;;;;;5.03;0.88;;;7.30;84.60;;;;;;6053576;23;20023;-72
2022/01/18 11:40:03;;;;;;;3.70;0.77;;;7.30;84.40;;;;;;6054486;23;20477;-71
2022/01/18 11:42:51;;;;;;;2.20;0.90;;;7.30;84.40;;;;;;6053537;23;20529;-71
2022/01/18 11:45:33;;;;;;;2.50;0.90;;;7.30;84.30;;;;;;6054159;23;20023;-71
2022/01/18 11:48:03;;;;;;;2.25;0.90;;;7.30;84.30;;;;;;6054136;23;20450;-72
2022/01/18 11:50:32;;;;;;;4.40;0.95;;;7.30;84.30;;;;;;6054093;23;20430;-71
2022/01/18 11:53:24;;;;;;;5.43;1.10;;;7.30;84.40;;;;;;6054981;23;20141;-71
2022/01/18 11:55:53;;;;;;;1.00;0.40;;;7.30;84.20;;;;;;6051146;23;20749;-71
2022/01/18 11:58:21;;;;;;;2.38;1.20;;;7.40;83.80;;;;;;6054966;23;20157;-71
2022/01/18 12:00:51;;;;;;;3.13;0.82;;;7.40;83.70;;;;;;6052893;23;20425;-71
2022/01/18 12:03:22;;;;;;;3.50;0.95;;;7.40;83.60;;;;;;6055261;23;20410;-71
2022/01/18 12:05:50;;;;;;;1.55;0.50;;;7.40;83.80;;;;;;6056091;23;20827;-71
2022/01/18 12:08:37;;;;;;;1.58;0.50;;;7.40;83.60;;;;;;6055760;23;20027;-70
2022/01/18 12:11:06;;;;;;;1.55;0.70;;;7.40;83.70;;;;;;6055731;23;20106;-72
2022/01/18 12:13:39;;;;;;;1.70;0.32;;;7.40;83.70;;;;;;6055716;23;20536;-72
2022/01/18 12:16:16;;;;;;;2.50;0.45;;;7.50;83.50;;;;;;6056023;23;20057;-72
2022/01/18 12:18:55;;;;;;;1.13;0.45;;;7.50;83.60;;;;;;5938200;23;20022;-70
2022/01/18 12:21:26;;;;;;;1.50;0.50;;;7.50;83.50;;;;;;1240797;23;10002049;-70
2022/01/18 12:23:56;;;;;;;1.45;0.45;;;7.50;83.60;;;;;;6053785;23;20026;-70
2022/01/18 12:26:33;;;;;;;1.47;0.60;;;7.60;83.60;;;;;;6055310;23;20081;-71
2022/01/18 12:34:52;;;;;;;4.00;0.75;;;7.60;83.30;;;;;;6055466;23;20401;-71
2022/01/18 12:37:39;;;;;;;3.28;0.60;;;7.60;83.30;;;;;;6055850;23;20090;-71
2022/01/18 12:40:11;;;;;;;2.15;0.70;;;7.70;83.30;;;;;;6055605;23;20022;-72
2022/01/18 12:45:27;;;;;;;3.90;0.90;;;7.70;83.10;;;;;;6055674;23;20026;-71
2022/01/18 12:47:58;;;;;;;3.20;0.90;;;7.70;83.00;;;;;;6056316;23;20024;-72
2022/01/18 12:50:28;;;;;;;3.80;0.85;;;7.60;83.00;;;;;;6055439;23;20140;-72
2022/01/18 12:52:57;;;;;;;1.33;0.60;;;7.70;83.10;;;;;;6055569;23;20050;-71
2022/01/18 12:55:28;;;;;;;3.10;0.90;;;7.70;83.20;;;;;;6054321;23;20154;-71
2022/01/18 12:58:03;;;;;;;2.75;0.60;;;7.70;83.10;;;;;;6052549;23;20023;-71
2022/01/18 13:00:35;;;;;;;1.23;0.95;;;7.70;83.00;;;;;;6050425;23;20129;-71
2022/01/18 13:03:02;;;;;;;0.68;0.30;;;7.70;83.00;;;;;;6052251;23;20046;-71
2022/01/18 13:05:40;;;;;;;2.47;0.40;;;7.70;82.90;;;;;;6051272;23;20501;-72
2022/01/18 13:08:09;;;;;;;2.03;0.50;;;7.70;82.80;;;;;;6054002;23;20042;-70
2022/01/18 13:10:41;;;;;;;0.80;0.30;;;7.60;82.40;;;;;;6053053;23;20450;-72
2022/01/18 13:13:10;;;;;;;2.92;0.70;;;7.60;82.20;;;;;;6051734;23;20023;-72
2022/01/18 13:15:53;;;;;;;1.17;0.47;;;7.60;82.30;;;;;;6052525;23;20639;-72
2022/01/18 13:24:14;;;;;;;0.88;0.32;;;7.60;82.50;;;;;;6051235;23;20027;-72
2022/01/18 13:26:47;;;;;;;;;;;7.60;82.30;;;;;;6051811;23;20376;-72
2022/01/18 13:29:17;;;;;;;1.52;0.32;;;7.60;82.20;;;;;;6050988;23;19932;-71
2022/01/18 13:31:47;;;;;;;1.33;0.55;;;7.60;82.20;;;;;;6049751;23;20029;-71
2022/01/18 13:34:16;;;;;;;1.80;0.93;;;7.60;82.00;;;;;;6055795;23;20023;-71
2022/01/18 13:36:55;;;;;;;1.70;0.85;;;7.60;82.20;;;;;;6057259;23;20027;-72
2022/01/18 13:39:28;;;;;;;2.53;0.80;;;7.60;82.20;;;;;;6057468;23;20039;-71
2022/01/18 13:41:58;;;;;;;1.95;0.70;;;7.60;82.20;;;;;;6057323;23;20235;-71
2022/01/18 13:44:26;;;;;;;1.50;0.65;;;7.60;82.00;;;;;;6057412;23;20022;-72
2022/01/18 13:46:53;;;;;;;0.90;0.57;;;7.60;82.20;;;;;;6057520;23;20304;-72
2022/01/18 13:49:24;;;;;;;1.25;0.60;;;7.50;82.20;;;;;;6057011;23;20046;-72
2022/01/18 13:52:01;;;;;;;;;;;7.50;82.20;;;;;;6058240;23;20018;-71
2022/01/18 13:54:43;;;;;;;1.35;0.30;;;7.50;82.30;;;;;;6057348;23;19921;-71
2022/01/18 13:57:12;;;;;;;2.47;0.70;;;7.50;82.40;;;;;;6056984;23;20041;-73
2022/01/18 13:59:39;;;;;;;4.20;1.15;;;7.50;82.40;;;;;;6056541;23;20106;-73
2022/01/18 14:02:14;;;;;;;2.70;1.55;;;7.60;82.30;;;;;;6055297;23;20069;-71
2022/01/18 14:04:42;;;;;;;3.50;1.20;;;7.60;82.30;;;;;;6056982;23;20048;-71
2022/01/18 14:07:09;;;;;;;3.28;1.25;;;7.60;82.00;;;;;;6057553;23;20030;-71
2022/01/18 14:09:37;;;;;;;2.33;0.90;;;7.50;81.90;;;;;;6055395;23;20104;-71
2022/01/18 14:12:06;;;;;;;2.08;0.70;;;7.50;82.00;;;;;;6056059;23;20026;-70
2022/01/18 14:14:35;;;;;;;2.05;0.30;;;7.50;82.00;;;;;;6043316;23;20031;-71